createdAt,value
2023-04-11T00:00:19.950Z,2.23
2023-04-11T00:02:47.291Z,3.23
2023-04-11T00:05:14.383Z,3.60
2023-04-11T00:07:41.269Z,2.80
2023-04-11T00:10:09.451Z,3.00
2023-04-11T00:12:36.458Z,3.00
2023-04-11T00:15:06.543Z,2.70
2023-04-11T00:17:33.474Z,3.13
2023-04-11T00:20:07.301Z,2.90
2023-04-11T00:22:34.579Z,2.90
2023-04-11T00:25:01.557Z,2.97
2023-04-11T00:27:29.016Z,2.60
2023-04-11T00:29:57.880Z,2.40
2023-04-11T00:32:26.197Z,2.80
2023-04-11T00:34:53.088Z,2.63
2023-04-11T00:37:22.502Z,2.50
2023-04-11T00:39:54.155Z,2.83
2023-04-11T00:42:21.258Z,2.43
2023-04-11T00:44:48.197Z,2.70
2023-04-11T00:47:15.579Z,2.70
2023-04-11T00:49:44.100Z,2.90
2023-04-11T00:52:12.735Z,2.47
2023-04-11T00:54:40.210Z,2.57
2023-04-11T00:57:08.452Z,2.67
2023-04-11T00:59:35.708Z,2.10
2023-04-11T01:02:02.736Z,3.07
2023-04-11T01:04:29.952Z,2.40
2023-04-11T01:07:05.778Z,2.70
2023-04-11T01:09:35.293Z,3.30
2023-04-11T01:12:04.651Z,2.60
2023-04-11T01:14:31.682Z,3.23
2023-04-11T01:17:02.103Z,2.83
2023-04-11T01:19:30.709Z,2.80
2023-04-11T01:22:01.752Z,3.30
2023-04-11T01:24:30.688Z,2.87
2023-04-11T01:26:57.976Z,2.70
2023-04-11T01:29:24.968Z,3.20
2023-04-11T01:31:52.274Z,2.50
2023-04-11T01:34:21.379Z,2.60
2023-04-11T01:36:48.515Z,1.10
2023-04-11T01:39:15.611Z,0.97
2023-04-11T01:41:45.697Z,0.90
2023-04-11T01:44:13.631Z,0.80
2023-04-11T01:46:40.882Z,0.90
2023-04-11T01:49:08.203Z,0.90
2023-04-11T01:51:36.085Z,0.87
2023-04-11T01:54:03.300Z,0.77
2023-04-11T01:56:30.229Z,0.90
2023-04-11T01:58:59.141Z,0.73
2023-04-11T02:01:26.635Z,0.87
2023-04-11T02:03:53.769Z,0.97
2023-04-11T02:06:20.725Z,0.77
2023-04-11T02:08:47.603Z,0.70
2023-04-11T02:11:14.503Z,0.80
2023-04-11T02:13:41.396Z,0.70
2023-04-11T02:16:17.847Z,0.90
2023-04-11T02:18:46.291Z,0.90
2023-04-11T02:21:13.379Z,1.00
2023-04-11T02:23:40.382Z,1.17
2023-04-11T02:26:07.332Z,0.80
2023-04-11T02:28:34.490Z,0.80
2023-04-11T02:31:02.208Z,0.60
2023-04-11T02:33:33.459Z,0.57
2023-04-11T02:36:00.570Z,0.70
2023-04-11T02:38:27.538Z,0.80
2023-04-11T02:40:54.441Z,1.00
2023-04-11T02:43:21.360Z,0.80
2023-04-11T02:45:48.401Z,0.80
2023-04-11T02:48:15.826Z,0.70
2023-04-11T02:50:44.123Z,1.40
2023-04-11T02:53:11.300Z,0.87
2023-04-11T02:55:38.183Z,0.90
2023-04-11T02:58:05.656Z,0.77
2023-04-11T03:00:32.632Z,0.80
2023-04-11T03:02:59.554Z,0.80
2023-04-11T03:05:26.499Z,0.83
2023-04-11T03:07:54.742Z,1.00
2023-04-11T03:10:21.669Z,1.10
2023-04-11T03:12:48.637Z,1.10
2023-04-11T03:15:17.570Z,1.30
2023-04-11T03:17:44.503Z,0.90
2023-04-11T03:20:19.424Z,1.20
2023-04-11T03:22:46.564Z,0.80
2023-04-11T03:25:15.073Z,1.10
2023-04-11T03:27:42.074Z,0.97
2023-04-11T03:30:10.337Z,1.00
2023-04-11T03:32:37.337Z,0.90
2023-04-11T03:35:05.326Z,1.00
2023-04-11T03:37:32.308Z,1.00
2023-04-11T03:39:59.141Z,1.53
2023-04-11T03:42:27.502Z,1.30
2023-04-11T03:44:54.346Z,1.23
2023-04-11T03:47:21.224Z,1.00
2023-04-11T03:49:48.093Z,1.37
2023-04-11T03:52:17.320Z,1.40
2023-04-11T03:54:46.386Z,1.27
2023-04-11T03:57:14.569Z,1.30
2023-04-11T03:59:42.838Z,1.50
2023-04-11T04:02:09.993Z,1.60
2023-04-11T04:04:38.377Z,1.37
2023-04-11T04:07:05.396Z,1.30
2023-04-11T04:09:32.273Z,1.27
2023-04-11T04:11:59.126Z,1.80
2023-04-11T04:14:26.253Z,1.70
2023-04-11T04:16:54.463Z,1.83
2023-04-11T04:19:21.413Z,1.93
2023-04-11T04:21:50.000Z,1.67
2023-04-11T04:24:17.374Z,1.90
2023-04-11T04:26:45.950Z,2.43
2023-04-11T04:29:12.827Z,1.77
2023-04-11T04:31:41.017Z,2.10
2023-04-11T04:34:09.834Z,1.50
2023-04-11T04:36:46.311Z,1.90
2023-04-11T04:39:17.419Z,2.10
2023-04-11T04:41:45.822Z,2.00
2023-04-11T04:44:13.018Z,2.47
2023-04-11T04:46:39.965Z,2.10
2023-04-11T04:49:09.228Z,2.07
2023-04-11T04:51:36.620Z,1.60
2023-04-11T04:54:05.132Z,2.03
2023-04-11T04:56:32.547Z,2.37
2023-04-11T04:58:59.607Z,2.53
2023-04-11T05:01:26.631Z,1.97
2023-04-11T05:03:59.048Z,2.60
2023-04-11T05:06:31.532Z,2.03
2023-04-11T05:09:00.995Z,2.00
2023-04-11T05:11:29.088Z,1.87
2023-04-11T05:13:56.270Z,1.83
2023-04-11T05:16:23.323Z,1.77
2023-04-11T05:18:50.400Z,1.83
2023-04-11T05:21:17.489Z,1.70
2023-04-11T05:23:45.894Z,1.87
2023-04-11T05:26:13.128Z,1.87
2023-04-11T05:28:42.730Z,1.60
2023-04-11T05:31:09.966Z,1.43
2023-04-11T05:33:38.279Z,1.50
2023-04-11T05:36:06.638Z,1.40
2023-04-11T05:38:33.663Z,1.57
2023-04-11T05:41:01.893Z,1.83
2023-04-11T05:43:28.810Z,1.50
2023-04-11T05:45:55.882Z,1.70
2023-04-11T05:48:23.860Z,1.73
2023-04-11T05:50:51.281Z,2.00
2023-04-11T05:53:18.441Z,1.53
2023-04-11T05:55:45.810Z,1.80
2023-04-11T05:58:14.384Z,1.73
2023-04-11T06:00:41.400Z,1.70
2023-04-11T06:03:09.298Z,1.67
2023-04-11T06:05:36.756Z,1.90
2023-04-11T06:08:06.632Z,1.77
2023-04-11T06:10:35.280Z,2.10
2023-04-11T06:13:06.901Z,1.90
2023-04-11T06:15:35.360Z,1.97
2023-04-11T06:18:02.270Z,2.53
2023-04-11T06:20:29.920Z,2.47
2023-04-11T06:22:57.115Z,2.47
2023-04-11T06:25:24.721Z,2.67
2023-04-11T06:27:51.721Z,2.90
2023-04-11T06:30:18.743Z,3.93
2023-04-11T06:32:47.185Z,3.80
2023-04-11T06:35:14.205Z,3.50
2023-04-11T06:37:42.308Z,3.57
2023-04-11T06:40:10.505Z,4.10
2023-04-11T06:42:37.410Z,3.60
2023-04-11T06:45:06.291Z,3.40
2023-04-11T06:47:33.311Z,3.47
2023-04-11T06:50:01.608Z,4.00
2023-04-11T06:52:28.532Z,4.10
2023-04-11T06:54:55.472Z,3.53
2023-04-11T06:57:22.382Z,3.70
2023-04-11T06:59:49.236Z,3.90
2023-04-11T07:02:16.740Z,3.83
2023-04-11T07:04:43.957Z,3.63
2023-04-11T07:07:12.434Z,4.00
2023-04-11T07:09:39.297Z,3.77
2023-04-11T07:12:06.451Z,2.70
2023-04-11T07:14:33.385Z,3.30
2023-04-11T07:17:01.321Z,3.20
2023-04-11T07:19:28.687Z,3.30
2023-04-11T07:21:56.885Z,3.67
2023-04-11T07:24:25.940Z,3.43
2023-04-11T07:26:54.300Z,3.13
2023-04-11T07:29:21.397Z,2.90
2023-04-11T07:31:49.469Z,2.77
2023-04-11T07:34:16.589Z,2.83
2023-04-11T07:36:43.504Z,2.70
2023-04-11T07:39:12.125Z,3.13
2023-04-11T07:41:40.778Z,2.80
2023-04-11T07:44:09.353Z,2.77
2023-04-11T07:46:36.254Z,2.87
2023-04-11T07:49:03.216Z,3.40
2023-04-11T07:51:31.116Z,3.10
2023-04-11T07:53:58.224Z,3.20
2023-04-11T07:56:25.582Z,3.37
2023-04-11T07:58:54.227Z,3.33
2023-04-11T08:01:22.661Z,3.10
2023-04-11T08:03:49.941Z,3.20
2023-04-11T08:06:17.002Z,3.50
2023-04-11T08:08:44.235Z,3.83
2023-04-11T08:11:11.126Z,2.47
2023-04-11T08:13:39.456Z,2.63
2023-04-11T08:16:11.739Z,2.87
2023-04-11T08:18:42.194Z,2.93
2023-04-11T08:21:11.430Z,2.87
2023-04-11T08:23:39.678Z,2.70
2023-04-11T08:26:07.727Z,2.83
2023-04-11T08:28:35.765Z,4.60
2023-04-11T08:31:03.974Z,2.83
2023-04-11T08:33:33.604Z,3.13
2023-04-11T08:36:00.539Z,2.00
2023-04-11T08:38:27.610Z,2.50
2023-04-11T08:40:55.333Z,2.67
2023-04-11T08:43:22.357Z,2.80
2023-04-11T08:45:49.531Z,1.93
2023-04-11T08:48:16.638Z,2.50
2023-04-11T08:50:45.123Z,2.00
2023-04-11T08:53:14.382Z,2.00
2023-04-11T08:55:48.303Z,2.20
2023-04-11T08:58:15.462Z,1.90
2023-04-11T09:00:42.457Z,1.67
2023-04-11T09:03:12.845Z,1.63
2023-04-11T09:05:42.551Z,2.13
2023-04-11T09:08:13.403Z,2.53
2023-04-11T09:10:45.219Z,2.50
2023-04-11T09:13:23.574Z,2.03
2023-04-11T09:16:06.120Z,2.10
2023-04-11T09:18:36.495Z,1.33
2023-04-11T09:21:05.947Z,1.20
2023-04-11T09:23:34.321Z,1.43
2023-04-11T09:26:01.914Z,1.23
2023-04-11T09:28:39.632Z,1.83
2023-04-11T09:31:08.417Z,1.20
2023-04-11T09:33:35.392Z,1.40
2023-04-11T09:36:19.702Z,1.60
2023-04-11T09:38:48.149Z,1.60
2023-04-11T09:41:16.170Z,1.50
2023-04-11T09:43:51.503Z,1.80
2023-04-11T09:46:20.977Z,1.90
2023-04-11T09:48:49.412Z,1.53
2023-04-11T09:51:34.426Z,1.70
2023-04-11T09:54:06.396Z,1.80
2023-04-11T09:56:37.040Z,2.37
2023-04-11T09:59:05.207Z,1.90
2023-04-11T10:01:32.534Z,2.00
2023-04-11T10:04:01.231Z,1.70
2023-04-11T10:06:33.855Z,1.40
2023-04-11T10:09:12.120Z,1.17
2023-04-11T10:11:42.805Z,1.00
2023-04-11T10:14:17.266Z,2.10
2023-04-11T10:17:17.051Z,1.43
2023-04-11T10:19:46.211Z,1.70
2023-04-11T10:22:58.913Z,1.80
2023-04-11T10:25:31.300Z,2.47
2023-04-11T10:28:04.678Z,2.37
2023-04-11T10:31:05.035Z,2.47
2023-04-11T10:33:33.942Z,2.07
2023-04-11T10:36:04.974Z,1.80
2023-04-11T10:38:49.803Z,1.20
2023-04-11T10:41:28.672Z,1.30
2023-04-11T10:44:18.148Z,2.17
2023-04-11T10:46:51.625Z,1.30
2023-04-11T10:49:37.440Z,1.40
2023-04-11T10:52:21.317Z,1.77
2023-04-11T10:54:50.530Z,1.80
2023-04-11T10:57:20.004Z,1.73
2023-04-11T11:00:00.589Z,1.60
2023-04-11T11:02:38.779Z,1.97
2023-04-11T11:05:24.558Z,2.57
2023-04-11T11:07:53.469Z,2.27
2023-04-11T11:10:41.966Z,2.33
2023-04-11T11:13:11.112Z,2.10
2023-04-11T11:15:39.246Z,2.00
2023-04-11T11:18:09.883Z,2.20
2023-04-11T11:20:37.984Z,1.80
2023-04-11T11:23:06.986Z,1.83
2023-04-11T11:25:34.487Z,1.73
2023-04-11T11:28:04.574Z,1.50
2023-04-11T11:30:33.931Z,1.63
2023-04-11T11:33:15.939Z,1.47
2023-04-11T11:35:46.416Z,1.80
2023-04-11T11:38:13.627Z,1.80
2023-04-11T11:40:40.790Z,1.30
2023-04-11T11:43:07.946Z,1.60
2023-04-11T11:45:36.346Z,1.40
2023-04-11T11:48:03.598Z,1.60
2023-04-11T11:50:32.970Z,1.70
2023-04-11T11:53:15.810Z,1.30
2023-04-11T11:55:43.501Z,1.60
2023-04-11T11:58:11.112Z,1.53
2023-04-11T12:00:40.954Z,1.80
2023-04-11T12:03:11.933Z,1.40
2023-04-11T12:05:39.141Z,1.40
2023-04-11T12:08:07.397Z,1.80
2023-04-11T12:10:40.906Z,1.60
2023-04-11T12:13:16.744Z,1.73
2023-04-11T12:15:50.005Z,1.47
2023-04-11T12:18:20.128Z,2.23
2023-04-11T12:20:47.212Z,1.30
2023-04-11T12:23:14.391Z,1.50
2023-04-11T12:25:41.740Z,1.17
2023-04-11T12:28:09.931Z,1.60
2023-04-11T12:30:37.710Z,1.70
2023-04-11T12:33:06.262Z,1.90
2023-04-11T12:35:33.779Z,1.73
2023-04-11T12:38:00.755Z,1.20
2023-04-11T12:40:29.580Z,0.93
2023-04-11T12:42:57.543Z,1.30
2023-04-11T12:45:25.832Z,1.20
2023-04-11T12:47:54.291Z,1.10
2023-04-11T12:50:23.880Z,1.50
2023-04-11T12:52:51.364Z,1.30
2023-04-11T12:55:18.639Z,1.30
2023-04-11T12:57:45.591Z,1.90
2023-04-11T13:00:14.707Z,1.30
2023-04-11T13:02:44.528Z,1.03
2023-04-11T13:05:15.072Z,0.97
2023-04-11T13:07:46.235Z,1.20
2023-04-11T13:10:14.386Z,0.67
2023-04-11T13:12:44.251Z,1.00
2023-04-11T13:15:14.104Z,0.83
2023-04-11T13:17:41.210Z,0.87
2023-04-11T13:20:10.938Z,1.00
2023-04-11T13:22:38.567Z,1.10
2023-04-11T13:25:08.304Z,1.03
2023-04-11T13:27:36.190Z,1.50
2023-04-11T13:30:04.879Z,0.93
2023-04-11T13:32:32.127Z,1.20
2023-04-11T13:34:59.136Z,1.30
2023-04-11T13:37:26.181Z,1.07
2023-04-11T13:39:53.316Z,1.00
2023-04-11T13:42:24.154Z,1.00
2023-04-11T13:44:51.146Z,1.00
2023-04-11T13:47:18.058Z,1.33
2023-04-11T13:49:45.020Z,1.53
2023-04-11T13:52:12.004Z,1.20
2023-04-11T13:54:39.093Z,1.70
2023-04-11T13:57:07.847Z,0.97
2023-04-11T13:59:36.405Z,0.97
2023-04-11T14:02:03.547Z,0.90
2023-04-11T14:04:31.030Z,1.20
2023-04-11T14:06:58.113Z,1.30
2023-04-11T14:09:27.991Z,1.17
2023-04-11T14:11:56.710Z,1.20
2023-04-11T14:14:23.718Z,1.73
2023-04-11T14:16:52.128Z,1.47
2023-04-11T14:19:19.238Z,1.30
2023-04-11T14:21:46.450Z,1.07
2023-04-11T14:24:13.374Z,1.67
2023-04-11T14:26:40.598Z,1.40
2023-04-11T14:29:07.864Z,1.50
2023-04-11T14:31:35.894Z,1.53
2023-04-11T14:34:04.630Z,1.60
2023-04-11T14:36:31.843Z,2.57
2023-04-11T14:38:58.955Z,1.67
2023-04-11T14:41:26.115Z,1.40
2023-04-11T14:43:52.973Z,1.40
2023-04-11T14:46:19.963Z,1.60
2023-04-11T14:48:46.891Z,1.00
2023-04-11T14:51:15.203Z,0.90
2023-04-11T14:53:42.811Z,0.80
2023-04-11T14:56:09.894Z,1.50
2023-04-11T14:58:36.842Z,1.30
2023-04-11T15:01:04.101Z,1.30
2023-04-11T15:03:31.509Z,0.77
2023-04-11T15:05:59.424Z,0.90
2023-04-11T15:08:27.844Z,1.20
2023-04-11T15:10:54.942Z,1.13
2023-04-11T15:13:22.860Z,1.10
2023-04-11T15:15:50.026Z,1.40
2023-04-11T15:18:23.071Z,2.03
2023-04-11T15:20:50.381Z,1.90
2023-04-11T15:23:19.480Z,1.80
2023-04-11T15:25:53.172Z,1.50
2023-04-11T15:28:20.550Z,1.70
2023-04-11T15:30:53.236Z,0.73
2023-04-11T15:33:24.452Z,1.60
2023-04-11T15:35:56.802Z,1.07
2023-04-11T15:38:26.393Z,1.63
2023-04-11T15:40:59.256Z,1.20
2023-04-11T15:43:27.062Z,1.33
2023-04-11T15:45:54.787Z,1.43
2023-04-11T15:48:22.049Z,1.73
2023-04-11T15:50:49.124Z,1.07
2023-04-11T15:53:16.323Z,1.37
2023-04-11T15:55:44.003Z,1.43
2023-04-11T15:58:12.950Z,8.00
2023-04-11T16:00:42.151Z,3.57
2023-04-11T16:03:10.536Z,1.67
2023-04-11T16:05:41.142Z,1.97
2023-04-11T16:08:08.571Z,2.00
2023-04-11T16:10:35.608Z,3.93
2023-04-11T16:13:03.043Z,2.50
2023-04-11T16:15:32.275Z,2.17
2023-04-11T16:17:59.768Z,2.07
2023-04-11T16:20:26.762Z,1.63
2023-04-11T16:22:53.915Z,2.00
2023-04-11T16:25:21.021Z,2.10
2023-04-11T16:27:51.032Z,1.80
2023-04-11T16:30:18.367Z,1.60
2023-04-11T16:32:47.293Z,2.07
2023-04-11T16:35:14.584Z,1.80
2023-04-11T16:37:41.993Z,1.73
2023-04-11T16:40:11.647Z,1.83
2023-04-11T16:42:39.607Z,1.87
2023-04-11T16:45:08.943Z,2.07
2023-04-11T16:47:36.255Z,2.17
2023-04-11T16:50:05.920Z,2.00
2023-04-11T16:52:33.020Z,2.23
2023-04-11T16:54:59.920Z,2.17
2023-04-11T16:57:27.486Z,2.10
2023-04-11T16:59:54.597Z,2.37
2023-04-11T17:02:21.675Z,3.00
2023-04-11T17:04:48.655Z,2.23
2023-04-11T17:07:17.668Z,2.40
2023-04-11T17:09:48.115Z,2.60
2023-04-11T17:12:15.352Z,1.77
2023-04-11T17:14:42.304Z,1.80
2023-04-11T17:17:09.583Z,2.93
2023-04-11T17:19:36.696Z,2.50
2023-04-11T17:22:05.761Z,2.60
2023-04-11T17:24:33.998Z,2.57
2023-04-11T17:27:01.191Z,2.90
2023-04-11T17:29:29.004Z,2.00
2023-04-11T17:31:56.020Z,2.77
2023-04-11T17:34:22.914Z,2.20
2023-04-11T17:36:50.013Z,2.77
2023-04-11T17:39:17.962Z,2.07
2023-04-11T17:41:47.132Z,2.00
2023-04-11T17:44:14.045Z,2.00
2023-04-11T17:46:41.127Z,2.60
2023-04-11T17:49:08.294Z,2.10
2023-04-11T17:51:38.853Z,2.27
2023-04-11T17:54:08.412Z,2.40
2023-04-11T17:56:35.308Z,17.90
2023-04-11T17:59:03.579Z,3.97
2023-04-11T18:01:32.367Z,2.80
2023-04-11T18:04:01.718Z,3.20
2023-04-11T18:06:29.530Z,2.17
2023-04-11T18:08:56.640Z,2.60
2023-04-11T18:11:23.917Z,2.87
2023-04-11T18:13:51.124Z,3.30
2023-04-11T18:16:19.520Z,3.07
2023-04-11T18:18:47.986Z,3.07
2023-04-11T18:21:15.961Z,2.50
2023-04-11T18:23:42.939Z,2.63
2023-04-11T18:26:09.994Z,2.73
2023-04-11T18:28:36.991Z,2.00
2023-04-11T18:31:04.771Z,2.40
2023-04-11T18:33:33.711Z,2.33
2023-04-11T18:36:01.565Z,2.53
2023-04-11T18:38:28.684Z,2.73
2023-04-11T18:40:56.791Z,2.57
2023-04-11T18:43:24.741Z,3.20
2023-04-11T18:45:51.744Z,2.80
2023-04-11T18:48:18.962Z,3.00
2023-04-11T18:50:48.607Z,3.43
2023-04-11T18:53:16.154Z,2.80
2023-04-11T18:55:43.119Z,2.70
2023-04-11T18:58:11.926Z,3.30
2023-04-11T19:00:40.687Z,3.30
2023-04-11T19:03:15.174Z,3.10
2023-04-11T19:05:44.012Z,3.83
2023-04-11T19:08:12.525Z,3.60
2023-04-11T19:10:39.501Z,3.33
2023-04-11T19:13:06.842Z,3.97
2023-04-11T19:15:33.839Z,4.23
2023-04-11T19:18:01.623Z,7.60
2023-04-11T19:20:29.467Z,4.03
2023-04-11T19:22:56.505Z,4.00
2023-04-11T19:25:24.873Z,4.03
2023-04-11T19:27:52.018Z,3.53
2023-04-11T19:30:19.012Z,4.37
2023-04-11T19:32:47.572Z,4.17
2023-04-11T19:35:15.142Z,3.63
2023-04-11T19:37:42.500Z,3.80
2023-04-11T19:40:11.004Z,4.13
2023-04-11T19:42:40.197Z,3.97
2023-04-11T19:45:10.933Z,3.43
2023-04-11T19:47:39.619Z,4.13
2023-04-11T19:50:09.532Z,4.07
2023-04-11T19:52:36.537Z,5.13
2023-04-11T19:55:03.969Z,5.00
2023-04-11T19:57:31.223Z,5.67
2023-04-11T19:59:59.486Z,5.63
2023-04-11T20:02:26.514Z,6.17
2023-04-11T20:04:56.073Z,7.13
2023-04-11T20:07:23.216Z,6.83
2023-04-11T20:09:51.261Z,5.97
2023-04-11T20:12:18.367Z,5.20
2023-04-11T20:14:45.332Z,5.00
2023-04-11T20:17:13.569Z,5.07
2023-04-11T20:19:41.648Z,5.33
2023-04-11T20:22:10.784Z,5.07
2023-04-11T20:24:37.807Z,4.50
2023-04-11T20:27:04.702Z,4.10
2023-04-11T20:29:32.721Z,4.37
2023-04-11T20:31:59.891Z,4.23
2023-04-11T20:34:28.185Z,4.50
2023-04-11T20:36:55.867Z,4.40
2023-04-11T20:39:23.173Z,4.27
2023-04-11T20:41:52.221Z,3.93
2023-04-11T20:44:21.027Z,4.17
2023-04-11T20:46:47.994Z,4.30
2023-04-11T20:49:17.606Z,4.13
2023-04-11T20:51:46.620Z,3.97
2023-04-11T20:54:13.539Z,4.07
2023-04-11T20:56:42.694Z,5.43
2023-04-11T20:59:09.749Z,3.80
2023-04-11T21:01:36.765Z,4.43
2023-04-11T21:04:04.285Z,3.70
2023-04-11T21:06:32.022Z,4.00
2023-04-11T21:09:00.989Z,4.30
2023-04-11T21:11:27.907Z,3.70
2023-04-11T21:13:55.622Z,3.90
2023-04-11T21:16:23.078Z,3.70
2023-04-11T21:18:50.103Z,4.30
2023-04-11T21:21:17.136Z,3.43
2023-04-11T21:23:44.248Z,3.90
2023-04-11T21:26:12.630Z,3.83
2023-04-11T21:28:39.743Z,3.37
2023-04-11T21:31:07.041Z,3.50
2023-04-11T21:33:34.082Z,3.20
2023-04-11T21:36:01.502Z,3.43
2023-04-11T21:38:28.896Z,3.67
2023-04-11T21:40:57.920Z,3.87
2023-04-11T21:43:26.187Z,3.50
2023-04-11T21:45:53.099Z,3.90
2023-04-11T21:48:19.966Z,4.03
2023-04-11T21:50:48.181Z,3.10
2023-04-11T21:53:15.294Z,3.50
2023-04-11T21:55:46.084Z,3.57
2023-04-11T21:58:25.888Z,3.53
2023-04-11T22:00:57.245Z,3.40
2023-04-11T22:03:24.774Z,3.47
2023-04-11T22:05:52.347Z,3.73
2023-04-11T22:08:22.072Z,4.70
2023-04-11T22:10:50.481Z,3.53
2023-04-11T22:13:19.634Z,4.17
2023-04-11T22:15:58.426Z,3.47
2023-04-11T22:18:26.884Z,3.53
2023-04-11T22:20:54.368Z,3.13
2023-04-11T22:23:21.698Z,3.60
2023-04-11T22:25:57.684Z,3.30
2023-04-11T22:28:26.210Z,3.83
2023-04-11T22:30:53.962Z,4.00
2023-04-11T22:33:20.952Z,3.87
2023-04-11T22:35:49.304Z,3.67
2023-04-11T22:38:16.752Z,3.30
2023-04-11T22:40:43.740Z,3.07
2023-04-11T22:43:10.801Z,3.77
2023-04-11T22:45:37.948Z,3.33
2023-04-11T22:48:06.154Z,3.60
2023-04-11T22:50:37.793Z,3.43
2023-04-11T22:53:09.428Z,4.13
2023-04-11T22:55:36.656Z,3.80
2023-04-11T22:58:03.926Z,3.70
2023-04-11T23:00:31.309Z,2.97
2023-04-11T23:02:59.516Z,3.27
2023-04-11T23:05:26.801Z,3.20
2023-04-11T23:07:53.756Z,3.20
2023-04-11T23:10:22.000Z,3.10
2023-04-11T23:12:49.275Z,3.57
2023-04-11T23:15:17.233Z,4.13
2023-04-11T23:17:44.810Z,4.00
2023-04-11T23:20:13.466Z,3.67
2023-04-11T23:22:43.114Z,2.90
2023-04-11T23:25:14.983Z,2.43
2023-04-11T23:27:44.314Z,2.30
2023-04-11T23:30:14.773Z,2.90
2023-04-11T23:32:42.718Z,2.47
2023-04-11T23:35:10.635Z,2.93
2023-04-11T23:37:37.531Z,2.97
2023-04-11T23:40:10.432Z,2.87
2023-04-11T23:42:38.349Z,3.20
2023-04-11T23:45:08.902Z,2.47
2023-04-11T23:47:36.186Z,2.37
2023-04-11T23:50:04.455Z,2.73
2023-04-11T23:52:31.894Z,2.80
2023-04-11T23:54:58.883Z,2.47
2023-04-11T23:57:26.335Z,2.90
2023-04-11T23:59:53.637Z,3.10
